Time;durP1;ratioP1;P1;durP2;ratioP2;P2;SDS_P1;SDS_P2;PMS_P1;PMS_P2;Temp;Humidity;BMP_temperature;BMP_pressure;BME280_temperature;BME280_humidity;BME280_pressure;Samples;Min_cycle;Max_cycle;Signal;HPM_P1;HPM_P2
2022/05/19 00:01:01;;;;;;;40.30;33.10;;;16.80;99.90;;;;;;5072082;28;20049;-76
2022/05/19 00:03:24;;;;;;;42.97;33.55;;;16.80;99.90;;;;;;5055538;28;20057;-76
2022/05/19 00:05:49;;;;;;;47.20;35.50;;;16.70;99.90;;;;;;5055350;28;20404;-75
2022/05/19 00:08:15;;;;;;;43.83;34.03;;;16.70;99.90;;;;;;5072079;28;20057;-75
2022/05/19 00:10:42;;;;;;;45.22;35.38;;;16.70;99.90;;;;;;5056396;28;20127;-76
2022/05/19 00:13:07;;;;;;;44.00;34.95;;;16.60;99.90;;;;;;5054953;28;20048;-76
2022/05/19 00:15:33;;;;;;;39.97;34.00;;;16.60;99.90;;;;;;5055629;28;20049;-76
2022/05/19 00:17:59;;;;;;;45.90;34.97;;;16.60;99.90;;;;;;5056598;28;20125;-75
2022/05/19 00:20:24;;;;;;;47.45;35.20;;;16.60;99.90;;;;;;5054736;28;20048;-76
2022/05/19 00:22:50;;;;;;;46.38;36.38;;;16.60;99.90;;;;;;5056181;28;20037;-76
2022/05/19 00:25:16;;;;;;;39.05;31.50;;;16.50;99.90;;;;;;5055264;28;20041;-75
2022/05/19 00:27:41;;;;;;;39.67;32.10;;;16.50;99.90;;;;;;5071399;28;20044;-75
2022/05/19 00:30:08;;;;;;;42.45;34.15;;;16.50;99.90;;;;;;5056203;28;20099;-75
2022/05/19 00:32:34;;;;;;;44.90;34.83;;;16.50;99.90;;;;;;5088997;28;20459;-75
2022/05/19 00:34:59;;;;;;;43.83;34.33;;;16.50;99.90;;;;;;5055049;28;20044;-75
2022/05/19 00:37:25;;;;;;;45.53;35.22;;;16.50;99.90;;;;;;5055823;28;20048;-75
2022/05/19 00:39:51;;;;;;;45.85;36.53;;;16.40;99.90;;;;;;5054621;28;20044;-75
2022/05/19 00:45:03;;;;;;;48.53;37.30;;;16.40;99.90;;;;;;5055985;28;20056;-76
2022/05/19 00:47:37;;;;;;;45.22;35.88;;;16.50;99.90;;;;;;5054631;28;20510;-75
2022/05/19 00:50:04;;;;;;;49.28;36.17;;;16.50;99.90;;;;;;5055283;28;20092;-75
2022/05/19 00:52:44;;;;;;;51.90;39.65;;;16.50;99.90;;;;;;5054202;28;20052;-75
2022/05/19 00:55:22;;;;;;;50.15;40.88;;;16.50;99.90;;;;;;5054093;28;20382;-75
2022/05/19 00:57:55;;;;;;;50.78;40.45;;;16.50;99.90;;;;;;5054668;28;20049;-75
2022/05/19 01:00:22;;;;;;;51.65;40.40;;;16.60;99.90;;;;;;5054589;28;20381;-75
2022/05/19 01:02:55;;;;;;;50.42;40.38;;;16.60;99.90;;;;;;5054616;28;20103;-75
2022/05/19 01:05:24;;;;;;;;;;;16.60;99.90;;;;;;5055919;28;20056;-75
2022/05/19 01:08:28;;;;;;;49.28;39.55;;;16.60;99.90;;;;;;5054677;28;20023;-76
2022/05/19 01:10:55;;;;;;;49.20;40.22;;;16.60;99.90;;;;;;5054358;28;20053;-76
2022/05/19 01:13:22;;;;;;;49.22;40.33;;;16.60;99.90;;;;;;5054028;28;20551;-76
2022/05/19 01:15:52;;;;;;;49.35;40.17;;;16.60;99.90;;;;;;5070389;28;20068;-76
2022/05/19 01:18:20;;;;;;;52.05;40.38;;;16.60;99.90;;;;;;5055245;28;20051;-75
2022/05/19 01:20:47;;;;;;;52.05;42.88;;;16.60;99.90;;;;;;5053855;28;20045;-76
2022/05/19 01:23:31;;;;;;;50.40;41.97;;;16.60;99.90;;;;;;5054090;28;20045;-76
2022/05/19 01:26:28;;;;;;;52.80;42.22;;;16.60;99.90;;;;;;5053774;28;20485;-76
2022/05/19 01:28:56;;;;;;;50.60;43.50;;;16.60;99.90;;;;;;5054491;28;20136;-76
2022/05/19 01:31:29;;;;;;;49.92;41.85;;;16.60;99.90;;;;;;5070113;28;20036;-76
2022/05/19 01:33:56;;;;;;;53.55;42.95;;;16.60;99.90;;;;;;5070301;28;20041;-76
2022/05/19 01:36:21;;;;;;;54.67;41.55;;;16.60;99.90;;;;;;5054682;28;20044;-76
2022/05/19 01:38:55;;;;;;;49.17;41.30;;;16.60;99.90;;;;;;5053993;28;20397;-76
2022/05/19 01:41:30;;;;;;;52.63;42.97;;;16.50;99.90;;;;;;5053774;28;20041;-75
2022/05/19 01:44:22;;;;;;;54.80;42.28;;;16.50;99.90;;;;;;5055172;28;20045;-75
2022/05/19 01:46:58;;;;;;;52.58;41.80;;;16.50;99.90;;;;;;5086806;28;20045;-76
2022/05/19 01:49:36;;;;;;;46.97;40.67;;;16.50;99.90;;;;;;5070114;28;20088;-75
2022/05/19 01:52:28;;;;;;;50.60;40.67;;;16.50;99.90;;;;;;5053800;28;20183;-76
2022/05/19 01:55:19;;;;;;;48.30;38.55;;;16.50;99.90;;;;;;5054249;28;20057;-75
2022/05/19 01:58:25;;;;;;;49.78;38.50;;;16.50;99.90;;;;;;5054593;28;20088;-75
2022/05/19 02:00:55;;;;;;;48.47;36.88;;;16.50;99.90;;;;;;5030629;28;20416;-75
2022/05/19 02:03:47;;;;;;;48.97;38.53;;;16.50;99.90;;;;;;5054397;28;20385;-75
2022/05/19 02:06:31;;;;;;;47.63;37.17;;;16.50;99.90;;;;;;5053353;28;20049;-75
2022/05/19 02:09:01;;;;;;;50.83;37.35;;;16.50;99.90;;;;;;5053377;28;20049;-75
2022/05/19 02:11:48;;;;;;;47.38;38.75;;;16.50;99.90;;;;;;5053225;28;20043;-75
2022/05/19 02:14:19;;;;;;;49.28;37.78;;;16.50;99.90;;;;;;5052667;28;20123;-75
2022/05/19 02:16:45;;;;;;;53.65;39.05;;;16.50;99.90;;;;;;5053247;28;20053;-75
2022/05/19 02:19:13;;;;;;;50.35;40.00;;;16.50;99.90;;;;;;5054233;28;20091;-75
2022/05/19 02:21:39;;;;;;;52.80;39.17;;;16.50;99.90;;;;;;5052558;28;20477;-75
2022/05/19 02:24:08;;;;;;;51.63;39.63;;;16.60;99.90;;;;;;5053794;28;20485;-75
2022/05/19 02:26:37;;;;;;;51.75;39.70;;;16.50;99.90;;;;;;5052470;28;20512;-75
2022/05/19 02:29:08;;;;;;;51.35;40.60;;;16.50;99.90;;;;;;5052775;28;20094;-75
2022/05/19 02:31:34;;;;;;;49.63;39.55;;;16.50;99.90;;;;;;5053175;28;20056;-75
2022/05/19 02:34:00;;;;;;;51.25;38.90;;;16.60;99.90;;;;;;5052570;28;20068;-75
2022/05/19 02:36:25;;;;;;;50.30;39.80;;;16.50;99.90;;;;;;5053773;28;20068;-74
2022/05/19 02:38:51;;;;;;;55.22;41.53;;;16.50;99.90;;;;;;5052546;28;20057;-75
2022/05/19 02:41:17;;;;;;;51.03;40.72;;;16.50;99.90;;;;;;5052542;28;20166;-75
2022/05/19 02:43:43;;;;;;;54.67;41.03;;;16.50;99.90;;;;;;5053681;28;20041;-75
2022/05/19 02:46:08;;;;;;;50.33;41.05;;;16.50;99.90;;;;;;5035895;28;20047;-75
2022/05/19 02:48:34;;;;;;;57.13;43.63;;;16.50;99.90;;;;;;5053537;28;20515;-75
2022/05/19 02:51:00;;;;;;;59.72;44.03;;;16.50;99.90;;;;;;5052049;28;20507;-75
2022/05/19 02:53:26;;;;;;;56.80;43.72;;;16.40;99.90;;;;;;5068667;28;20048;-75
2022/05/19 02:55:52;;;;;;;56.80;42.80;;;16.40;99.90;;;;;;5052218;28;20063;-75
2022/05/19 02:58:18;;;;;;;55.75;43.80;;;16.40;99.90;;;;;;5052557;28;20056;-75
2022/05/19 03:00:46;;;;;;;55.08;43.17;;;16.40;99.90;;;;;;5052560;28;20107;-75
2022/05/19 03:03:12;;;;;;;57.88;45.15;;;16.40;99.90;;;;;;5052198;28;20052;-75
2022/05/19 03:05:38;;;;;;;55.97;45.13;;;16.40;99.90;;;;;;5052166;28;20041;-75
2022/05/19 03:08:06;;;;;;;57.17;44.00;;;16.40;99.90;;;;;;5052253;28;20401;-76
2022/05/19 03:10:32;;;;;;;61.35;45.85;;;16.40;99.90;;;;;;5053083;28;20048;-75
2022/05/19 03:12:58;;;;;;;61.65;45.50;;;16.40;99.90;;;;;;5053251;28;20045;-75
2022/05/19 03:15:24;;;;;;;60.22;45.70;;;16.40;99.90;;;;;;5068796;28;20409;-75
2022/05/19 03:17:50;;;;;;;60.22;45.38;;;16.40;99.90;;;;;;5085260;28;20045;-75
2022/05/19 03:20:16;;;;;;;59.33;46.13;;;16.40;99.90;;;;;;5051788;28;20053;-75
2022/05/19 03:22:43;;;;;;;61.38;45.88;;;16.40;99.90;;;;;;5051897;28;20045;-75
2022/05/19 03:25:09;;;;;;;64.75;46.78;;;16.40;99.90;;;;;;5052976;28;20471;-75
2022/05/19 03:27:36;;;;;;;61.25;45.60;;;16.40;99.90;;;;;;5052052;28;20053;-75
2022/05/19 03:30:04;;;;;;;58.72;46.13;;;16.40;99.90;;;;;;5052361;28;20451;-74
2022/05/19 03:32:30;;;;;;;58.35;45.75;;;16.40;99.90;;;;;;5052486;28;20412;-75
2022/05/19 03:34:56;;;;;;;57.95;45.25;;;16.40;99.90;;;;;;5053560;28;20128;-74
2022/05/19 03:37:21;;;;;;;57.38;44.90;;;16.40;99.90;;;;;;5069116;28;20447;-75
2022/05/19 03:39:47;;;;;;;62.15;45.63;;;16.40;99.90;;;;;;5070153;28;20053;-74
2022/05/19 03:42:13;;;;;;;57.85;45.83;;;16.40;99.90;;;;;;5054150;28;20044;-75
2022/05/19 03:44:39;;;;;;;59.25;47.08;;;16.40;99.90;;;;;;5054335;28;20041;-75
2022/05/19 03:47:05;;;;;;;62.58;46.67;;;16.40;99.90;;;;;;5052235;28;20056;-75
2022/05/19 03:49:32;;;;;;;58.40;46.33;;;16.40;99.90;;;;;;5051767;28;20119;-75
2022/05/19 03:51:58;;;;;;;61.42;44.97;;;16.50;99.90;;;;;;5052413;28;20071;-75
2022/05/19 03:54:23;;;;;;;57.75;43.95;;;16.50;99.90;;;;;;5051561;28;20512;-75
2022/05/19 03:56:49;;;;;;;55.67;43.72;;;16.50;99.90;;;;;;5052972;28;20400;-74
2022/05/19 03:59:16;;;;;;;59.85;45.35;;;16.40;99.90;;;;;;5052944;28;20615;-75
2022/05/19 04:01:42;;;;;;;62.50;46.80;;;16.50;99.90;;;;;;5068426;28;20086;-75
2022/05/19 04:04:08;;;;;;;58.90;45.03;;;16.50;99.90;;;;;;5052737;28;20044;-75
2022/05/19 04:06:35;;;;;;;61.15;46.55;;;16.50;99.90;;;;;;5051347;28;20072;-75
2022/05/19 04:09:03;;;;;;;63.00;46.70;;;16.50;99.90;;;;;;5052459;28;20392;-75
2022/05/19 04:11:29;;;;;;;60.13;47.40;;;16.50;99.90;;;;;;5051993;28;20099;-75
2022/05/19 04:13:55;;;;;;;59.25;45.42;;;16.60;99.90;;;;;;5051591;28;20033;-76
2022/05/19 04:16:22;;;;;;;57.92;44.60;;;16.60;99.90;;;;;;5051819;28;20045;-75
2022/05/19 04:18:47;;;;;;;54.35;43.58;;;16.60;99.90;;;;;;5051679;28;20033;-75
2022/05/19 04:21:13;;;;;;;61.47;44.63;;;16.60;99.90;;;;;;5067628;28;20504;-76
2022/05/19 04:23:39;;;;;;;55.28;44.35;;;16.60;99.90;;;;;;5052805;28;20080;-75
2022/05/19 04:26:05;;;;;;;55.88;44.53;;;16.70;99.90;;;;;;5051410;28;20485;-75
2022/05/19 04:28:31;;;;;;;56.83;44.22;;;16.70;99.90;;;;;;5052794;28;20067;-75
2022/05/19 04:30:56;;;;;;;55.28;44.35;;;16.70;99.90;;;;;;5054987;28;20066;-75
2022/05/19 04:33:22;;;;;;;56.30;43.90;;;16.70;99.90;;;;;;5071480;28;20505;-75
2022/05/19 04:35:48;;;;;;;53.05;43.13;;;16.70;99.90;;;;;;5055882;28;20083;-75
2022/05/19 04:38:16;;;;;;;51.35;43.22;;;16.80;99.90;;;;;;5056145;28;20049;-75
2022/05/19 04:40:48;;;;;;;54.78;43.40;;;16.80;99.90;;;;;;5054843;28;20049;-75
2022/05/19 04:43:21;;;;;;;56.35;44.88;;;16.80;99.90;;;;;;5056062;28;20118;-75
2022/05/19 04:45:54;;;;;;;54.80;43.50;;;16.80;99.90;;;;;;5056139;28;20049;-75
2022/05/19 04:48:20;;;;;;;;;;;16.80;99.90;;;;;;5055046;28;20044;-76
2022/05/19 04:50:50;;;;;;;50.28;41.50;;;16.80;99.90;;;;;;5054560;28;19928;-75
2022/05/19 04:53:16;;;;;;;52.38;42.15;;;16.90;99.90;;;;;;5054662;28;20057;-75
2022/05/19 04:55:42;;;;;;;58.10;43.90;;;16.90;99.90;;;;;;5071425;28;20053;-76
2022/05/19 04:58:08;;;;;;;55.45;43.65;;;16.90;99.90;;;;;;5038259;28;20135;-76
2022/05/19 05:00:35;;;;;;;54.00;42.83;;;17.00;99.90;;;;;;5055496;28;20648;-75
2022/05/19 05:03:01;;;;;;;51.80;41.92;;;17.00;99.90;;;;;;5054298;28;20055;-75
2022/05/19 05:05:27;;;;;;;50.08;40.75;;;17.10;99.90;;;;;;5056042;28;20045;-75
2022/05/19 05:07:53;;;;;;;48.10;41.38;;;17.10;99.90;;;;;;5058635;28;20051;-74
2022/05/19 05:10:18;;;;;;;51.78;40.47;;;17.20;99.90;;;;;;5054255;28;20147;-76
2022/05/19 05:12:44;;;;;;;48.78;39.22;;;17.20;99.90;;;;;;5055292;28;20049;-76
2022/05/19 05:15:10;;;;;;;55.92;41.90;;;17.30;99.90;;;;;;5055279;28;20041;-75
2022/05/19 05:17:36;;;;;;;48.97;41.00;;;17.30;99.90;;;;;;5054331;28;20048;-75
2022/05/19 05:20:04;;;;;;;49.88;41.10;;;17.40;99.90;;;;;;5070369;28;20397;-76
2022/05/19 05:22:34;;;;;;;50.72;40.95;;;17.40;99.90;;;;;;5087689;28;20405;-76
2022/05/19 05:25:05;;;;;;;52.38;39.38;;;17.50;99.90;;;;;;5054264;28;20045;-76
2022/05/19 05:27:30;;;;;;;47.33;39.15;;;17.50;99.90;;;;;;5055077;28;20041;-76
2022/05/19 05:29:56;;;;;;;49.88;40.28;;;17.50;99.90;;;;;;5054023;28;20090;-76
2022/05/19 05:50:46;;;;;;;47.38;38.58;;;17.80;99.90;;;;;;5273021;22;20244;-74
2022/05/19 05:53:12;;;;;;;46.65;38.30;;;17.90;99.90;;;;;;5029403;28;20437;-75
2022/05/19 05:55:41;;;;;;;46.97;39.15;;;17.90;99.90;;;;;;5033198;28;20045;-75
2022/05/19 05:58:09;;;;;;;45.88;38.67;;;18.00;99.90;;;;;;5033387;28;20481;-75
2022/05/19 06:00:35;;;;;;;44.92;38.63;;;18.10;99.90;;;;;;5034424;28;20084;-75
2022/05/19 06:03:01;;;;;;;44.10;37.25;;;18.00;99.90;;;;;;5034555;28;20045;-75
2022/05/19 06:05:26;;;;;;;44.28;35.95;;;18.10;99.90;;;;;;5034529;28;20156;-75
2022/05/19 06:07:52;;;;;;;45.53;36.20;;;18.10;99.90;;;;;;5034336;28;20481;-75
2022/05/19 06:10:18;;;;;;;40.08;34.38;;;18.10;99.90;;;;;;5034464;28;20049;-75
2022/05/19 06:12:44;;;;;;;40.33;34.72;;;18.20;99.90;;;;;;5034063;28;20045;-76
2022/05/19 06:15:13;;;;;;;35.45;31.42;;;18.20;99.90;;;;;;5034003;28;20053;-76
2022/05/19 06:17:41;;;;;;;33.30;29.70;;;18.30;99.90;;;;;;5034240;28;20504;-77
2022/05/19 06:20:10;;;;;;;32.22;25.75;;;18.40;99.90;;;;;;5033022;28;20045;-74
2022/05/19 06:22:37;;;;;;;29.83;23.80;;;18.50;99.90;;;;;;5034034;28;20049;-76
2022/05/19 06:25:04;;;;;;;24.83;21.60;;;18.60;99.90;;;;;;5032975;28;20053;-77
2022/05/19 06:27:30;;;;;;;25.45;21.65;;;18.80;99.90;;;;;;5033893;28;20099;-74
2022/05/19 06:29:56;;;;;;;24.30;19.95;;;19.00;99.90;;;;;;5032838;28;20045;-76
2022/05/19 06:32:22;;;;;;;22.08;19.67;;;19.20;99.90;;;;;;5033546;28;20049;-77
2022/05/19 06:34:47;;;;;;;26.55;19.00;;;19.30;99.90;;;;;;5033910;28;20201;-78
2022/05/19 06:37:13;;;;;;;24.08;19.67;;;19.40;99.90;;;;;;5032633;28;20133;-75
2022/05/19 06:39:39;;;;;;;23.42;19.23;;;19.50;99.90;;;;;;5033750;28;20073;-75
2022/05/19 06:42:11;;;;;;;21.58;19.27;;;19.60;99.90;;;;;;5033548;28;20046;-77
2022/05/19 06:44:39;;;;;;;23.33;19.27;;;19.70;99.90;;;;;;5034550;28;20132;-76
2022/05/19 06:47:15;;;;;;;22.70;18.65;;;19.70;99.90;;;;;;5033757;28;20045;-77
2022/05/19 06:49:46;;;;;;;22.50;18.88;;;19.70;99.90;;;;;;5034103;28;20052;-78
2022/05/19 06:52:15;;;;;;;21.52;19.23;;;19.70;99.90;;;;;;5032120;28;20144;-75
2022/05/19 06:54:52;;;;;;;22.00;19.33;;;19.80;99.90;;;;;;5033253;28;20460;-78
2022/05/19 06:57:19;;;;;;;20.77;18.55;;;19.80;99.90;;;;;;5032937;28;20045;-77
2022/05/19 06:59:46;;;;;;;20.63;17.73;;;19.90;99.90;;;;;;5033485;28;20549;-81
2022/05/19 07:02:12;;;;;;;20.67;18.10;;;19.90;99.90;;;;;;5033575;28;20042;-79
2022/05/19 07:04:38;;;;;;;20.70;15.60;;;20.00;99.90;;;;;;5032274;28;20041;-77
2022/05/19 07:07:05;;;;;;;20.27;15.95;;;20.00;99.90;;;;;;5032295;28;20046;-74
2022/05/19 07:09:35;;;;;;;19.55;15.55;;;20.10;99.90;;;;;;5032897;28;20049;-76
2022/05/19 07:12:02;;;;;;;17.20;15.40;;;20.10;99.90;;;;;;5032972;28;20102;-77
2022/05/19 07:14:28;;;;;;;17.52;14.55;;;20.20;99.90;;;;;;5033315;28;20064;-77
2022/05/19 07:16:54;;;;;;;18.50;15.10;;;20.20;99.90;;;;;;5033663;28;20425;-76
2022/05/19 07:22:06;;;;;;;17.90;15.48;;;20.40;99.90;;;;;;5032826;28;20049;-78
2022/05/19 07:24:32;;;;;;;17.85;15.80;;;20.50;99.90;;;;;;5033429;28;20072;-77
2022/05/19 07:26:59;;;;;;;22.00;16.35;;;20.60;99.90;;;;;;5032250;28;20057;-76
2022/05/19 07:29:26;;;;;;;17.17;15.38;;;20.60;99.90;;;;;;5033256;28;20091;-76
2022/05/19 07:31:58;;;;;;;18.80;16.17;;;20.60;99.90;;;;;;5032282;28;20168;-75
2022/05/19 07:34:24;;;;;;;17.70;15.93;;;20.60;99.90;;;;;;5031990;28;20041;-75
2022/05/19 07:36:50;;;;;;;19.83;17.52;;;20.60;99.90;;;;;;5032536;28;20041;-75
2022/05/19 07:39:16;;;;;;;19.88;17.77;;;20.60;99.90;;;;;;5032357;28;20037;-75
2022/05/19 07:41:42;;;;;;;19.95;16.85;;;20.60;99.90;;;;;;5033253;28;20045;-76
2022/05/19 07:44:09;;;;;;;19.70;16.73;;;20.60;99.90;;;;;;5033245;28;20525;-74
2022/05/19 07:46:36;;;;;;;17.50;15.50;;;20.50;99.90;;;;;;5032423;28;20122;-75
2022/05/19 07:49:02;;;;;;;16.92;15.23;;;20.40;99.90;;;;;;5032947;28;20046;-75
2022/05/19 07:51:37;;;;;;;15.07;13.52;;;20.30;99.90;;;;;;5032517;28;20413;-75
2022/05/19 07:54:12;;;;;;;15.32;13.68;;;20.30;99.90;;;;;;5033241;28;20124;-74
2022/05/19 07:56:39;;;;;;;18.60;14.07;;;20.30;99.90;;;;;;5032013;28;20076;-75
2022/05/19 07:59:05;;;;;;;15.98;14.38;;;20.20;99.90;;;;;;5032071;28;20388;-73
2022/05/19 08:01:32;;;;;;;17.48;15.38;;;20.20;99.90;;;;;;5031610;28;20049;-72
2022/05/19 08:03:58;;;;;;;17.02;14.65;;;20.10;99.90;;;;;;5036540;28;20052;-73
2022/05/19 08:06:24;;;;;;;19.15;16.27;;;20.10;99.90;;;;;;5036924;28;20060;-73
2022/05/19 08:08:50;;;;;;;17.48;15.65;;;20.10;99.90;;;;;;5036829;28;20089;-73
2022/05/19 08:11:16;;;;;;;16.95;15.13;;;20.10;99.90;;;;;;5036727;28;20045;-74
2022/05/19 08:16:26;;;;;;;19.50;16.92;;;20.00;99.90;;;;;;5036763;28;20500;-73
2022/05/19 08:18:52;;;;;;;19.20;16.77;;;20.00;99.90;;;;;;5035344;28;20045;-74
2022/05/19 08:21:18;;;;;;;19.50;17.52;;;19.90;99.90;;;;;;5035105;28;20049;-74
2022/05/19 08:23:47;;;;;;;20.77;17.50;;;19.80;99.90;;;;;;5036636;28;20060;-74
2022/05/19 08:26:13;;;;;;;22.05;19.77;;;19.70;99.90;;;;;;5012661;28;20156;-72
2022/05/19 08:28:41;;;;;;;24.48;21.73;;;19.70;99.90;;;;;;5025037;28;20397;-72
2022/05/19 08:31:15;;;;;;;25.08;22.30;;;19.70;99.90;;;;;;5026637;28;20041;-71
2022/05/19 08:33:43;;;;;;;26.42;23.63;;;19.60;99.90;;;;;;5028229;28;20564;-72
2022/05/19 08:36:10;;;;;;;27.70;24.80;;;19.50;99.90;;;;;;5051865;28;20057;-72
2022/05/19 08:38:37;;;;;;;29.52;26.13;;;19.40;99.90;;;;;;5035368;28;20403;-72
2022/05/19 08:41:25;;;;;;;30.40;27.20;;;19.40;99.90;;;;;;5051554;28;20107;-73
2022/05/19 08:44:22;;;;;;;29.95;26.75;;;19.40;99.90;;;;;;5029385;28;20045;-73
2022/05/19 08:46:50;;;;;;;30.23;27.13;;;19.40;99.90;;;;;;5028680;28;20048;-72
2022/05/19 08:49:38;;;;;;;29.67;26.58;;;19.40;99.90;;;;;;5029501;28;20045;-72
2022/05/19 08:52:09;;;;;;;30.75;27.55;;;19.30;99.90;;;;;;5027921;28;20453;-72
2022/05/19 08:54:38;;;;;;;30.67;27.47;;;19.30;99.90;;;;;;5026805;28;20076;-72
2022/05/19 08:57:27;;;;;;;32.70;27.15;;;19.20;99.90;;;;;;5029489;28;20110;-72
2022/05/19 09:00:00;;;;;;;30.58;27.30;;;19.20;99.90;;;;;;5025455;28;20065;-72
2022/05/19 09:02:37;;;;;;;33.53;27.98;;;19.20;99.90;;;;;;5027391;28;20052;-72
2022/05/19 09:05:09;;;;;;;29.63;26.60;;;19.50;99.90;;;;;;5030567;28;20079;-71
2022/05/19 09:08:01;;;;;;;32.08;27.77;;;19.20;99.90;;;;;;5026021;28;20091;-73
2022/05/19 09:10:32;;;;;;;33.85;27.42;;;19.20;99.90;;;;;;5029830;28;20053;-73
2022/05/19 09:13:16;;;;;;;30.98;27.70;;;19.20;99.90;;;;;;5029631;28;20046;-73
2022/05/19 09:15:45;;;;;;;32.95;27.48;;;19.30;99.90;;;;;;5029399;28;20053;-72
2022/05/19 09:18:18;;;;;;;34.80;29.05;;;19.30;99.90;;;;;;5030240;28;20096;-72
2022/05/19 09:20:55;;;;;;;38.67;29.60;;;19.40;99.90;;;;;;5025195;28;20128;-73
2022/05/19 09:23:23;;;;;;;35.78;31.05;;;19.40;99.90;;;;;;5028402;28;20397;-73
2022/05/19 09:26:10;;;;;;;36.10;29.65;;;19.50;99.90;;;;;;5037933;28;20045;-73
2022/05/19 09:28:36;;;;;;;35.70;31.83;;;19.50;99.90;;;;;;5031576;28;20099;-73
2022/05/19 09:31:02;;;;;;;42.85;38.28;;;19.60;99.90;;;;;;5023715;28;20081;-73
2022/05/19 09:33:37;;;;;;;75.70;67.63;;;19.60;99.90;;;;;;5008797;28;20147;-73
2022/05/19 09:36:12;;;;;;;84.05;74.95;;;19.70;99.90;;;;;;5024804;28;20045;-73
2022/05/19 09:38:50;;;;;;;92.55;83.05;;;19.70;99.90;;;;;;5028307;28;20063;-73
2022/05/19 09:41:21;;;;;;;79.38;71.28;;;19.80;99.90;;;;;;5025436;28;20049;-74
2022/05/19 09:43:53;;;;;;;58.95;52.67;;;19.80;99.90;;;;;;5025057;28;20034;-74
2022/05/19 09:46:19;;;;;;;46.08;41.40;;;19.90;99.90;;;;;;5025447;28;20053;-73
2022/05/19 09:49:04;;;;;;;41.47;37.13;;;19.90;99.90;;;;;;5024237;28;20045;-74
2022/05/19 09:51:42;;;;;;;37.55;33.78;;;19.90;99.90;;;;;;5025072;28;20058;-73
2022/05/19 09:54:12;;;;;;;31.85;28.45;;;20.00;99.90;;;;;;5025366;28;20044;-73
2022/05/19 09:56:48;;;;;;;30.67;27.38;;;20.00;99.90;;;;;;5024498;28;20084;-74
2022/05/19 09:59:35;;;;;;;24.95;22.35;;;20.10;99.90;;;;;;5025280;28;20041;-73
2022/05/19 10:02:23;;;;;;;25.27;22.17;;;20.20;99.90;;;;;;5027695;28;20044;-74
2022/05/19 10:04:55;;;;;;;24.67;22.13;;;20.20;99.90;;;;;;5033553;28;20057;-74
2022/05/19 10:07:44;;;;;;;22.90;20.70;;;20.20;99.90;;;;;;5033343;28;20084;-74
2022/05/19 10:10:26;;;;;;;22.77;20.38;;;20.30;99.90;;;;;;5034351;28;20076;-73
2022/05/19 10:12:56;;;;;;;21.75;19.63;;;20.30;99.90;;;;;;5034092;28;20049;-74
2022/05/19 10:15:28;;;;;;;18.92;17.13;;;20.30;99.90;;;;;;5034580;28;20077;-74
2022/05/19 10:18:05;;;;;;;20.88;17.85;;;20.40;99.90;;;;;;5033629;28;20053;-74
2022/05/19 10:20:48;;;;;;;17.92;16.00;;;20.50;99.90;;;;;;5033861;28;20045;-73
2022/05/19 10:23:28;;;;;;;17.52;15.65;;;20.60;99.90;;;;;;5034070;28;20049;-73
2022/05/19 10:26:00;;;;;;;18.52;16.58;;;20.60;99.90;;;;;;5034066;28;20497;-78
2022/05/19 10:31:48;;;;;;;18.25;16.25;;;20.80;99.90;;;;;;5033848;28;20084;-76
2022/05/19 10:34:31;;;;;;;17.38;15.57;;;20.90;99.90;;;;;;5034180;28;20057;-77
2022/05/19 10:37:20;;;;;;;16.02;14.23;;;21.00;99.90;;;;;;5032800;28;20103;-76
2022/05/19 10:40:00;;;;;;;16.80;15.02;;;21.10;99.90;;;;;;5033142;28;20493;-77
2022/05/19 10:42:58;;;;;;;17.60;15.20;;;21.10;99.90;;;;;;5033916;28;20045;-76
2022/05/19 10:45:32;;;;;;;18.27;16.40;;;21.10;99.90;;;;;;5033155;28;20049;-77
2022/05/19 10:48:07;;;;;;;19.45;17.45;;;21.10;99.90;;;;;;5034104;28;20053;-77
2022/05/19 10:50:38;;;;;;;19.38;17.30;;;21.10;99.90;;;;;;5033031;28;20123;-76
2022/05/19 10:53:30;;;;;;;20.20;18.00;;;21.10;99.90;;;;;;5032911;28;20057;-77
2022/05/19 10:56:09;;;;;;;19.60;17.63;;;21.10;99.90;;;;;;5032960;28;20486;-77
2022/05/19 10:58:49;;;;;;;19.33;17.42;;;21.00;99.90;;;;;;5032422;28;20466;-76
2022/05/19 11:01:49;;;;;;;19.10;17.13;;;21.00;99.90;;;;;;5046999;28;20140;-77
2022/05/19 11:04:27;;;;;;;20.00;17.98;;;21.00;99.90;;;;;;5027522;28;20038;-77
2022/05/19 11:07:17;;;;;;;21.25;19.17;;;21.00;99.90;;;;;;5013467;28;20095;-77
2022/05/19 11:10:09;;;;;;;20.88;18.67;;;21.10;99.90;;;;;;5028211;28;20041;-77
2022/05/19 11:13:11;;;;;;;21.30;19.20;;;21.20;99.90;;;;;;5026593;28;20053;-77
2022/05/19 11:15:57;;;;;;;21.77;19.58;;;21.30;99.90;;;;;;5031657;28;20045;-80
2022/05/19 11:18:31;;;;;;;21.90;19.60;;;21.50;99.90;;;;;;5032497;28;20053;-80
2022/05/19 11:21:08;;;;;;;21.45;19.25;;;21.70;99.90;;;;;;5032163;28;20045;-81
2022/05/19 11:23:43;;;;;;;20.50;18.60;;;21.90;99.90;;;;;;5032274;28;20088;-80
2022/05/19 11:26:23;;;;;;;21.27;19.20;;;22.00;99.90;;;;;;5031675;28;20045;-81
2022/05/19 11:29:09;;;;;;;21.35;19.05;;;22.10;99.90;;;;;;5031850;28;20045;-83
2022/05/19 11:32:15;;;;;;;21.13;19.13;;;22.30;99.90;;;;;;5030539;28;20067;-80
2022/05/19 11:34:53;;;;;;;21.30;19.10;;;22.40;99.90;;;;;;5025970;28;20049;-82
2022/05/19 11:37:46;;;;;;;21.73;19.63;;;22.50;99.90;;;;;;5028115;28;20132;-83
2022/05/19 11:40:18;;;;;;;21.42;19.23;;;22.60;99.90;;;;;;5030918;28;20643;-81
2022/05/19 11:43:12;;;;;;;21.33;19.35;;;22.70;99.90;;;;;;5029403;28;20195;-80
2022/05/19 11:45:42;;;;;;;21.77;19.40;;;22.10;99.90;;;;;;5030237;28;20053;-84
2022/05/19 11:57:32;;;;;;;21.50;19.30;;;23.00;99.90;;;;;;5031094;28;20049;-80
2022/05/19 12:00:00;;;;;;;21.08;19.05;;;23.00;99.90;;;;;;5030127;28;20049;-80
2022/05/19 12:02:52;;;;;;;23.85;19.23;;;23.10;99.90;;;;;;5031231;28;20057;-81
2022/05/19 12:05:43;;;;;;;20.35;18.25;;;23.20;99.90;;;;;;5028561;28;20060;-79
2022/05/19 12:08:19;;;;;;;19.75;17.55;;;23.30;99.90;;;;;;5030282;28;20563;-80
2022/05/19 12:10:53;;;;;;;19.25;16.63;;;23.50;99.90;;;;;;5015103;28;20191;-79
2022/05/19 12:13:32;;;;;;;16.17;14.48;;;23.70;99.90;;;;;;5030512;28;20077;-80
2022/05/19 12:16:17;;;;;;;14.90;13.48;;;23.80;99.90;;;;;;5029336;28;20069;-80
2022/05/19 12:19:06;;;;;;;12.88;10.77;;;23.90;99.90;;;;;;5030788;28;20050;-81
2022/05/19 12:21:53;;;;;;;11.20;9.57;;;24.00;99.90;;;;;;5031572;28;20100;-80
2022/05/19 12:24:26;;;;;;;8.93;7.53;;;24.00;99.90;;;;;;5029471;28;20053;-78
2022/05/19 12:27:00;;;;;;;10.15;8.25;;;24.10;99.90;;;;;;5030284;28;20049;-80
2022/05/19 12:29:33;;;;;;;8.73;7.78;;;24.10;99.90;;;;;;5029316;28;20053;-82
2022/05/19 12:32:28;;;;;;;11.77;9.43;;;24.10;99.90;;;;;;5031190;28;20473;-79
2022/05/19 12:35:02;;;;;;;10.38;7.80;;;24.10;99.90;;;;;;5031666;28;20041;-80
2022/05/19 12:37:34;;;;;;;8.80;7.75;;;24.20;99.90;;;;;;5031212;28;20064;-82
2022/05/19 12:40:21;;;;;;;8.57;6.35;;;24.20;99.90;;;;;;5029842;28;20047;-82
2022/05/19 12:42:48;;;;;;;8.32;5.68;;;24.20;99.90;;;;;;5029131;28;20643;-79
2022/05/19 12:45:27;;;;;;;7.15;4.78;;;24.20;99.90;;;;;;5030622;28;20494;-74
2022/05/19 12:48:00;;;;;;;7.43;5.80;;;24.20;99.90;;;;;;5030064;28;20088;-71
2022/05/19 12:51:11;;;;;;;6.85;6.05;;;24.20;99.90;;;;;;5025972;28;20045;-76
2022/05/19 12:53:49;;;;;;;7.97;6.80;;;24.30;99.90;;;;;;5029526;28;20077;-74
2022/05/19 12:56:40;;;;;;;6.18;5.57;;;24.20;99.90;;;;;;5028052;28;20041;-76
2022/05/19 12:59:26;;;;;;;7.55;5.40;;;24.20;99.90;;;;;;5031786;28;20128;-74
2022/05/19 13:01:59;;;;;;;7.35;6.25;;;24.10;99.90;;;;;;5029772;28;20052;-76
2022/05/19 13:04:31;;;;;;;10.75;9.65;;;24.10;99.90;;;;;;5030026;28;20053;-79
2022/05/19 13:07:32;;;;;;;10.95;9.85;;;24.00;99.90;;;;;;5027962;28;20064;-75
2022/05/19 13:10:07;;;;;;;11.43;10.18;;;23.90;99.90;;;;;;5028067;28;20045;-72
2022/05/19 13:13:01;;;;;;;8.95;7.68;;;23.80;99.90;;;;;;5030159;28;20049;-73
2022/05/19 13:15:31;;;;;;;7.97;7.15;;;23.70;99.90;;;;;;5028668;28;20045;-75
2022/05/19 13:18:03;;;;;;;9.13;7.00;;;23.70;99.90;;;;;;5028223;28;20577;-72
2022/05/19 13:20:34;;;;;;;9.32;7.65;;;23.60;99.90;;;;;;5028094;28;20087;-73
2022/05/19 13:23:04;;;;;;;7.55;6.68;;;23.60;99.90;;;;;;5026705;28;20145;-73
2022/05/19 13:25:33;;;;;;;7.93;7.22;;;23.50;99.90;;;;;;5028049;28;20053;-80
2022/05/19 13:31:02;;;;;;;10.18;8.60;;;23.40;99.90;;;;;;5028743;28;20124;-74
2022/05/19 13:33:38;;;;;;;9.60;8.32;;;23.30;99.90;;;;;;5028644;28;20041;-78
2022/05/19 13:36:05;;;;;;;9.90;8.90;;;23.10;99.90;;;;;;5029190;28;20162;-74